Time;durP1;ratioP1;P1;durP2;ratioP2;P2;SDS_P1;SDS_P2;PMS_P1;PMS_P2;Temp;Humidity;BMP_temperature;BMP_pressure;BME280_temperature;BME280_humidity;BME280_pressure;Samples;Min_cycle;Max_cycle;Signal;HPM_P1;HPM_P2
2021/05/20 00:02:21;;;;;;;1.38;1.27;;;17.90;88.50;;;;;;5058849;28;20048;-66
2021/05/20 00:04:46;;;;;;;1.75;1.60;;;18.20;64.30;;;;;;5057437;28;20052;-66
2021/05/20 00:07:12;;;;;;;1.23;1.13;;;17.90;64.10;;;;;;5057724;28;20029;-66
2021/05/20 00:09:38;;;;;;;2.30;1.20;;;17.60;63.90;;;;;;5058718;28;20486;-66
2021/05/20 00:12:04;;;;;;;1.98;1.52;;;17.90;64.00;;;;;;5059037;28;20083;-66
2021/05/20 00:14:29;;;;;;;1.42;1.33;;;17.90;64.10;;;;;;5058805;28;20047;-66
2021/05/20 00:16:56;;;;;;;1.55;1.05;;;17.90;64.10;;;;;;5058995;28;20028;-66
2021/05/20 00:19:22;;;;;;;1.27;1.15;;;17.90;64.10;;;;;;5057423;28;20032;-66
2021/05/20 00:21:48;;;;;;;1.77;1.42;;;17.90;64.00;;;;;;5058680;28;20031;-66
2021/05/20 00:24:13;;;;;;;1.73;1.63;;;17.70;63.90;;;;;;5058702;28;20029;-66
2021/05/20 00:26:39;;;;;;;2.20;1.45;;;18.00;64.10;;;;;;5058723;28;20104;-66
2021/05/20 00:29:05;;;;;;;1.83;1.08;;;17.90;64.00;;;;;;5058500;28;20063;-67
2021/05/20 00:31:31;;;;;;;2.72;1.30;;;17.90;64.10;;;;;;5058728;28;20039;-66
2021/05/20 00:33:57;;;;;;;1.58;1.48;;;17.80;64.00;;;;;;5058634;28;20017;-66
2021/05/20 00:36:22;;;;;;;1.60;1.50;;;18.10;64.20;;;;;;5058650;28;20384;-66
2021/05/20 00:38:48;;;;;;;1.85;1.75;;;18.30;64.30;;;;;;5058804;28;20020;-66
2021/05/20 00:41:14;;;;;;;1.98;1.60;;;18.40;64.40;;;;;;5058789;28;20034;-66
2021/05/20 00:43:40;;;;;;;1.60;1.50;;;17.70;64.00;;;;;;5058444;28;20040;-66
2021/05/20 00:46:06;;;;;;;1.95;1.70;;;17.80;64.00;;;;;;5054948;28;20480;-66
2021/05/20 00:48:32;;;;;;;2.55;1.60;;;17.60;63.90;;;;;;5055623;28;20036;-66
2021/05/20 00:50:58;;;;;;;1.50;1.40;;;17.80;64.00;;;;;;5055182;28;20033;-66
2021/05/20 00:53:24;;;;;;;2.17;1.50;;;17.70;63.90;;;;;;5055156;28;20032;-66
2021/05/20 00:55:50;;;;;;;2.08;1.40;;;17.60;63.80;;;;;;5055167;28;20103;-66
2021/05/20 00:58:17;;;;;;;2.15;1.40;;;17.80;64.00;;;;;;5055148;28;20025;-65
2021/05/20 01:00:43;;;;;;;1.63;1.52;;;17.80;64.00;;;;;;5055388;28;20032;-66
2021/05/20 01:03:09;;;;;;;1.33;1.23;;;17.70;63.90;;;;;;5054857;28;20048;-66
2021/05/20 01:05:34;;;;;;;1.70;1.42;;;17.80;88.60;;;;;;5054901;28;20491;-66
2021/05/20 01:08:00;;;;;;;3.13;1.40;;;17.70;64.00;;;;;;5055142;28;20075;-66
2021/05/20 01:10:25;;;;;;;1.50;1.40;;;17.50;63.90;;;;;;5055082;28;20025;-66
2021/05/20 01:12:51;;;;;;;2.35;1.88;;;17.70;64.00;;;;;;5054843;28;20108;-66
2021/05/20 01:15:25;;;;;;;2.22;2.03;;;17.80;64.10;;;;;;5054771;28;20483;-66
2021/05/20 01:17:56;;;;;;;1.52;1.42;;;17.80;63.90;;;;;;5054699;28;20532;-66
2021/05/20 01:20:24;;;;;;;3.60;1.98;;;17.80;64.00;;;;;;5055041;28;20043;-66
2021/05/20 01:22:50;;;;;;;2.15;1.60;;;17.60;63.90;;;;;;5053324;28;20041;-66
2021/05/20 01:25:16;;;;;;;2.05;1.63;;;17.70;64.10;;;;;;5054654;28;20051;-66
2021/05/20 01:27:43;;;;;;;2.15;1.75;;;17.70;64.00;;;;;;5054820;28;20029;-66
2021/05/20 01:30:10;;;;;;;2.63;2.20;;;17.40;63.90;;;;;;5054793;28;20028;-66
2021/05/20 01:32:36;;;;;;;3.75;1.88;;;17.70;64.10;;;;;;5054262;28;20036;-66
2021/05/20 01:35:03;;;;;;;1.65;1.55;;;17.70;88.50;;;;;;5053165;28;20025;-66
2021/05/20 01:37:29;;;;;;;1.73;1.60;;;17.70;64.00;;;;;;5053385;28;20036;-66
2021/05/20 01:39:54;;;;;;;2.03;1.80;;;17.70;64.00;;;;;;5054369;28;20028;-66
2021/05/20 01:42:20;;;;;;;2.08;1.90;;;17.50;63.90;;;;;;5053056;28;20025;-66
2021/05/20 01:44:45;;;;;;;1.80;1.55;;;17.70;64.00;;;;;;5054441;28;20029;-66
2021/05/20 01:47:11;;;;;;;1.75;1.65;;;17.70;64.00;;;;;;5054520;28;20517;-66
2021/05/20 01:49:37;;;;;;;4.35;2.05;;;17.70;64.00;;;;;;5054195;28;20402;-66
2021/05/20 01:52:02;;;;;;;1.63;1.52;;;17.60;64.00;;;;;;5053969;28;20117;-67
2021/05/20 01:54:28;;;;;;;2.90;2.13;;;17.60;64.00;;;;;;5054360;28;20048;-66
2021/05/20 01:56:53;;;;;;;2.38;1.77;;;17.70;64.10;;;;;;5052866;28;20028;-66
2021/05/20 01:59:19;;;;;;;2.42;1.63;;;17.50;63.90;;;;;;5053902;28;20028;-66
2021/05/20 02:01:45;;;;;;;1.83;1.55;;;17.70;64.10;;;;;;5052615;28;20119;-66
2021/05/20 02:04:10;;;;;;;2.30;1.60;;;17.50;63.90;;;;;;5053830;28;20033;-66
2021/05/20 02:06:36;;;;;;;3.08;2.00;;;17.60;63.90;;;;;;5053780;28;20139;-66
2021/05/20 02:09:05;;;;;;;1.73;1.63;;;17.60;64.10;;;;;;5053798;28;20047;-66
2021/05/20 02:11:31;;;;;;;3.03;1.75;;;17.60;64.00;;;;;;5053676;28;20461;-66
2021/05/20 02:13:56;;;;;;;2.40;2.20;;;17.60;64.00;;;;;;5053927;28;20093;-66
2021/05/20 02:16:22;;;;;;;1.85;1.60;;;17.70;64.00;;;;;;5053622;28;20029;-66
2021/05/20 02:18:47;;;;;;;2.40;2.20;;;17.60;64.00;;;;;;5053497;28;20032;-66
2021/05/20 02:21:13;;;;;;;1.80;1.70;;;17.60;64.00;;;;;;5053596;28;20025;-66
2021/05/20 02:23:39;;;;;;;2.83;2.08;;;17.40;63.90;;;;;;5053524;28;20067;-66
2021/05/20 02:26:05;;;;;;;3.15;1.70;;;17.50;63.90;;;;;;5052554;28;20083;-66
2021/05/20 02:28:31;;;;;;;1.88;1.48;;;17.40;63.80;;;;;;5052088;28;20018;-66
2021/05/20 02:30:56;;;;;;;2.42;1.70;;;17.60;64.00;;;;;;5053193;28;20032;-66
2021/05/20 02:33:22;;;;;;;2.00;1.80;;;17.50;63.90;;;;;;5053278;28;20028;-66
2021/05/20 02:35:48;;;;;;;2.42;2.13;;;17.60;64.00;;;;;;5051936;28;20025;-66
2021/05/20 02:38:13;;;;;;;1.85;1.60;;;17.50;63.90;;;;;;5053200;28;20048;-66
2021/05/20 02:40:39;;;;;;;2.00;1.80;;;17.50;63.90;;;;;;5053203;28;20372;-66
2021/05/20 02:43:04;;;;;;;2.88;2.22;;;17.50;63.90;;;;;;5053384;28;20036;-65
2021/05/20 02:45:30;;;;;;;1.70;1.60;;;17.60;63.90;;;;;;5053329;28;20021;-66
2021/05/20 02:47:56;;;;;;;2.25;1.98;;;17.60;63.90;;;;;;5053113;28;20542;-66
2021/05/20 02:50:23;;;;;;;2.08;1.88;;;17.60;63.90;;;;;;5053005;28;20056;-66
2021/05/20 02:52:50;;;;;;;2.25;1.92;;;17.60;63.90;;;;;;5053241;28;20388;-66
2021/05/20 02:55:21;;;;;;;2.30;2.03;;;17.60;63.90;;;;;;5052890;28;20051;-66
2021/05/20 02:57:59;;;;;;;2.33;2.13;;;17.50;63.80;;;;;;5053176;28;20044;-66
2021/05/20 03:00:33;;;;;;;2.40;1.85;;;17.30;63.70;;;;;;5051652;28;20029;-66
2021/05/20 03:02:59;;;;;;;3.38;1.90;;;17.50;63.80;;;;;;5052715;28;20068;-65
2021/05/20 03:05:25;;;;;;;2.00;1.80;;;17.50;63.80;;;;;;5052753;28;20029;-66
2021/05/20 03:07:55;;;;;;;2.38;2.17;;;18.50;65.10;;;;;;5051075;28;20017;-66
2021/05/20 03:10:20;;;;;;;1.95;1.77;;;17.50;63.80;;;;;;5052712;28;20124;-66
2021/05/20 03:12:46;;;;;;;2.05;1.95;;;17.50;63.80;;;;;;5052629;28;20082;-66
2021/05/20 03:15:12;;;;;;;2.85;2.10;;;17.50;63.80;;;;;;5052662;28;20025;-66
2021/05/20 03:17:38;;;;;;;2.55;2.00;;;17.50;63.80;;;;;;5052868;28;20028;-65
2021/05/20 03:20:05;;;;;;;1.77;1.67;;;17.50;63.80;;;;;;5052864;28;20025;-66
2021/05/20 03:22:31;;;;;;;1.90;1.70;;;17.40;63.80;;;;;;5052566;28;20495;-66
2021/05/20 03:24:56;;;;;;;1.98;1.88;;;17.40;63.90;;;;;;5052468;28;20029;-65
2021/05/20 03:27:22;;;;;;;2.15;1.95;;;17.50;63.80;;;;;;5052751;28;20086;-66
2021/05/20 03:29:48;;;;;;;1.65;1.55;;;17.50;63.80;;;;;;5052727;28;20079;-66
2021/05/20 03:32:13;;;;;;;1.98;1.88;;;17.50;63.80;;;;;;5052647;28;20029;-66
2021/05/20 03:34:39;;;;;;;2.20;2.00;;;17.30;63.70;;;;;;5051512;28;20124;-66
2021/05/20 03:37:04;;;;;;;1.77;1.67;;;17.20;63.60;;;;;;5052653;28;20470;-66
2021/05/20 03:39:33;;;;;;;1.55;1.45;;;17.50;63.80;;;;;;5052418;28;20025;-66
2021/05/20 03:41:59;;;;;;;3.90;2.10;;;17.40;63.80;;;;;;5052311;28;20111;-66
2021/05/20 03:44:26;;;;;;;2.42;2.17;;;17.20;63.60;;;;;;5051407;28;20036;-66
2021/05/20 03:46:52;;;;;;;1.95;1.80;;;17.40;63.70;;;;;;5052393;28;20566;-66
2021/05/20 03:49:17;;;;;;;2.47;2.00;;;17.40;63.70;;;;;;5052645;28;20017;-66
2021/05/20 03:51:43;;;;;;;2.05;1.70;;;17.60;63.80;;;;;;5052126;28;20037;-66
2021/05/20 03:54:09;;;;;;;2.03;1.90;;;17.10;63.60;;;;;;5052257;28;20025;-66
2021/05/20 03:56:34;;;;;;;2.22;1.92;;;17.50;63.80;;;;;;5052181;28;20044;-66
2021/05/20 03:59:00;;;;;;;3.58;2.10;;;17.90;64.00;;;;;;5052182;28;20103;-66
2021/05/20 04:01:26;;;;;;;1.83;1.73;;;17.40;63.70;;;;;;5050937;28;20053;-66
2021/05/20 04:03:51;;;;;;;3.08;2.58;;;17.00;63.50;;;;;;5051990;28;20041;-66
2021/05/20 04:06:17;;;;;;;2.17;1.95;;;17.30;63.70;;;;;;5052155;28;20017;-66
2021/05/20 04:08:42;;;;;;;1.80;1.70;;;17.40;63.80;;;;;;5052461;28;20029;-66
2021/05/20 04:11:08;;;;;;;1.70;1.60;;;17.40;63.70;;;;;;5052293;28;20044;-66
2021/05/20 04:13:39;;;;;;;3.80;1.58;;;17.40;63.70;;;;;;5050835;28;20047;-66
2021/05/20 04:16:06;;;;;;;2.30;2.03;;;17.20;63.60;;;;;;5052081;28;20107;-66
2021/05/20 04:18:32;;;;;;;2.25;2.03;;;17.40;63.70;;;;;;5052299;28;20078;-66
2021/05/20 04:20:58;;;;;;;3.15;2.00;;;17.30;63.70;;;;;;5052987;28;20479;-66
2021/05/20 04:23:24;;;;;;;2.17;1.95;;;17.40;63.80;;;;;;5056151;28;20025;-66
2021/05/20 04:25:51;;;;;;;3.20;2.20;;;17.30;63.80;;;;;;5054482;28;20108;-66
2021/05/20 04:28:17;;;;;;;2.17;1.98;;;17.30;63.70;;;;;;5055681;28;20029;-65
2021/05/20 04:30:43;;;;;;;2.65;2.15;;;17.30;63.70;;;;;;5055584;28;20029;-66
2021/05/20 04:33:09;;;;;;;2.55;1.40;;;17.70;64.00;;;;;;5055664;28;20415;-66
2021/05/20 04:35:35;;;;;;;2.40;2.20;;;17.40;63.80;;;;;;5055849;28;20054;-66
2021/05/20 04:38:05;;;;;;;2.80;1.85;;;17.30;63.80;;;;;;5055592;28;20021;-66
2021/05/20 04:40:32;;;;;;;2.00;1.80;;;17.20;63.70;;;;;;5055757;28;20380;-66
2021/05/20 04:42:58;;;;;;;3.35;2.25;;;17.10;64.30;;;;;;5055769;28;20017;-65
2021/05/20 04:45:24;;;;;;;2.08;1.88;;;17.30;63.80;;;;;;5055386;28;20032;-66
2021/05/20 04:47:49;;;;;;;1.90;1.80;;;17.30;63.80;;;;;;5055687;28;20102;-66
2021/05/20 04:50:16;;;;;;;2.72;2.20;;;17.10;63.70;;;;;;5055260;28;20119;-66
2021/05/20 04:52:43;;;;;;;2.33;2.13;;;17.30;63.80;;;;;;5055246;28;20526;-66
2021/05/20 04:55:09;;;;;;;2.03;1.92;;;17.20;63.80;;;;;;5055238;28;20021;-66
2021/05/20 04:57:35;;;;;;;1.90;1.80;;;17.30;63.80;;;;;;5055188;28;20041;-66
2021/05/20 05:00:03;;;;;;;2.55;2.35;;;17.30;63.90;;;;;;5055212;28;20021;-66
2021/05/20 05:02:28;;;;;;;3.08;2.33;;;17.20;63.90;;;;;;5055060;28;20480;-66
2021/05/20 05:04:54;;;;;;;2.90;1.75;;;17.30;64.60;;;;;;5054922;28;20049;-66
2021/05/20 05:07:19;;;;;;;2.78;1.80;;;17.30;63.90;;;;;;5055058;28;20510;-66
2021/05/20 05:09:45;;;;;;;2.13;1.65;;;17.30;63.90;;;;;;5055070;28;20435;-64
2021/05/20 05:12:11;;;;;;;1.67;1.58;;;17.00;63.70;;;;;;5053739;28;20433;-64
2021/05/20 05:14:36;;;;;;;3.78;3.10;;;17.30;63.90;;;;;;5055267;28;20021;-64
2021/05/20 05:17:02;;;;;;;2.40;2.20;;;17.30;64.00;;;;;;5055191;28;20021;-64
2021/05/20 05:19:28;;;;;;;2.78;2.40;;;17.10;63.80;;;;;;5055170;28;20017;-64
2021/05/20 05:21:53;;;;;;;4.43;2.13;;;17.30;63.90;;;;;;5054867;28;20033;-64
2021/05/20 05:24:19;;;;;;;3.60;2.50;;;17.20;63.90;;;;;;5053539;28;20021;-64
2021/05/20 05:26:45;;;;;;;2.40;2.20;;;17.30;63.90;;;;;;5054808;28;20040;-65
2021/05/20 05:29:10;;;;;;;4.80;4.00;;;17.30;64.00;;;;;;5054957;28;20464;-64
2021/05/20 05:31:36;;;;;;;3.83;3.40;;;17.30;64.00;;;;;;5054338;28;20029;-64
2021/05/20 05:34:03;;;;;;;4.45;2.95;;;17.30;64.00;;;;;;5054794;28;20025;-64
2021/05/20 05:36:29;;;;;;;4.22;3.75;;;17.30;64.00;;;;;;5054518;28;20063;-65
2021/05/20 05:38:54;;;;;;;4.65;3.47;;;17.30;63.90;;;;;;5054624;28;20052;-65
2021/05/20 05:41:20;;;;;;;4.93;3.85;;;17.20;63.80;;;;;;5054447;28;20099;-66
2021/05/20 05:43:45;;;;;;;3.40;2.95;;;17.30;64.00;;;;;;5054418;28;20075;-66
2021/05/20 05:46:11;;;;;;;6.45;4.25;;;17.30;64.30;;;;;;5054424;28;20055;-66
2021/05/20 05:48:37;;;;;;;8.48;5.18;;;17.20;64.10;;;;;;5054411;28;20503;-66
2021/05/20 05:51:06;;;;;;;6.13;4.60;;;17.30;64.30;;;;;;5052940;28;20033;-65
2021/05/20 05:53:32;;;;;;;5.82;4.88;;;17.30;64.40;;;;;;5054590;28;20095;-65
2021/05/20 05:55:59;;;;;;;6.28;4.15;;;17.30;64.60;;;;;;5054271;28;20500;-65
2021/05/20 05:58:25;;;;;;;3.15;2.78;;;17.30;64.80;;;;;;5054272;28;20021;-67
2021/05/20 06:00:50;;;;;;;4.32;3.65;;;17.30;64.40;;;;;;5054039;28;20487;-66
2021/05/20 06:03:16;;;;;;;3.90;3.50;;;17.90;64.50;;;;;;5053814;28;20024;-65
2021/05/20 06:05:45;;;;;;;6.35;4.35;;;17.20;64.20;;;;;;5052759;28;20025;-66
2021/05/20 06:08:11;;;;;;;4.47;3.25;;;17.40;64.30;;;;;;5053924;28;20060;-66
2021/05/20 06:10:37;;;;;;;5.88;3.42;;;17.40;64.10;;;;;;5053821;28;20099;-66
2021/05/20 06:13:02;;;;;;;2.25;2.08;;;17.40;63.70;;;;;;5053813;28;20476;-65
2021/05/20 06:15:28;;;;;;;3.83;2.97;;;17.40;63.90;;;;;;5053955;28;20021;-66
2021/05/20 06:17:54;;;;;;;5.32;3.08;;;17.50;64.00;;;;;;5053924;28;20079;-66
2021/05/20 06:20:19;;;;;;;2.83;2.35;;;17.50;64.50;;;;;;5052703;28;20440;-66
2021/05/20 06:22:46;;;;;;;2.97;2.13;;;17.20;64.40;;;;;;5053764;28;20025;-66
2021/05/20 06:25:12;;;;;;;3.05;2.45;;;17.40;64.90;;;;;;5053790;28;20033;-66
2021/05/20 06:27:37;;;;;;;3.30;2.20;;;17.50;64.90;;;;;;5052241;28;20090;-66
2021/05/20 06:30:03;;;;;;;3.58;2.58;;;17.40;65.00;;;;;;5053426;28;20044;-66
2021/05/20 06:32:30;;;;;;;3.95;2.38;;;17.40;64.80;;;;;;5053553;28;20139;-66
2021/05/20 06:34:56;;;;;;;4.30;2.20;;;17.50;64.80;;;;;;5053351;28;20043;-67
2021/05/20 06:37:21;;;;;;;2.70;1.60;;;17.40;64.90;;;;;;5053265;28;20476;-67
2021/05/20 06:39:47;;;;;;;2.00;1.80;;;17.20;64.80;;;;;;5053192;28;20025;-66
2021/05/20 06:42:15;;;;;;;5.78;2.03;;;17.50;65.10;;;;;;5052885;28;20017;-66
2021/05/20 06:44:42;;;;;;;2.03;1.80;;;17.30;65.00;;;;;;5053301;28;20024;-66
2021/05/20 06:47:08;;;;;;;4.93;2.55;;;;;;;;;;5053246;28;20025;-66
2021/05/20 06:49:34;;;;;;;2.40;1.92;;;17.50;64.70;;;;;;5053391;28;20029;-66
2021/05/20 06:52:00;;;;;;;4.28;2.42;;;17.50;65.30;;;;;;5053241;28;20059;-66
2021/05/20 06:54:26;;;;;;;2.35;2.13;;;17.50;65.20;;;;;;5053303;28;20555;-66
2021/05/20 06:57:04;;;;;;;2.55;1.95;;;17.60;65.20;;;;;;5053206;28;20028;-65
2021/05/20 07:02:14;;;;;;;3.08;1.50;;;17.50;65.20;;;;;;5053260;28;20498;-65
2021/05/20 07:04:39;;;;;;;2.33;1.80;;;17.50;65.30;;;;;;5052621;28;20037;-65
2021/05/20 07:07:06;;;;;;;2.17;1.98;;;17.50;65.20;;;;;;5052829;28;20029;-65
2021/05/20 07:09:34;;;;;;;1.95;1.83;;;17.60;65.10;;;;;;5052891;28;20021;-65
2021/05/20 07:12:00;;;;;;;2.22;1.90;;;17.50;89.30;;;;;;5052651;28;20048;-63
2021/05/20 07:14:26;;;;;;;2.75;1.80;;;17.50;64.90;;;;;;5052619;28;20033;-65
2021/05/20 07:16:52;;;;;;;3.78;1.52;;;17.60;64.90;;;;;;5052654;28;20390;-66
2021/05/20 07:19:21;;;;;;;2.47;2.03;;;17.60;64.90;;;;;;5052620;28;20052;-65
2021/05/20 07:21:47;;;;;;;1.35;1.25;;;17.70;65.10;;;;;;5052675;28;20360;-65
2021/05/20 07:24:13;;;;;;;1.98;1.52;;;17.70;65.00;;;;;;5052813;28;20024;-66
2021/05/20 07:26:39;;;;;;;1.50;1.40;;;17.70;65.20;;;;;;5052606;28;20029;-67
2021/05/20 07:29:05;;;;;;;1.45;1.30;;;17.70;65.40;;;;;;5052535;28;20178;-67
2021/05/20 07:31:32;;;;;;;1.75;1.65;;;17.50;65.20;;;;;;5052633;28;20388;-67
2021/05/20 07:33:58;;;;;;;1.10;1.00;;;17.70;65.30;;;;;;5052638;28;20361;-67
2021/05/20 07:36:24;;;;;;;2.30;1.75;;;17.50;65.00;;;;;;5052774;28;20379;-67
2021/05/20 07:38:50;;;;;;;2.70;1.50;;;17.80;65.00;;;;;;5052678;28;20017;-67
2021/05/20 07:41:16;;;;;;;2.00;1.27;;;17.80;65.00;;;;;;5052680;28;20369;-67
2021/05/20 07:43:43;;;;;;;1.05;0.90;;;17.70;89.20;;;;;;5052422;28;20372;-67
2021/05/20 07:46:10;;;;;;;2.17;1.10;;;17.80;64.90;;;;;;5051102;28;20475;-66
2021/05/20 07:48:36;;;;;;;1.23;1.13;;;18.50;65.20;;;;;;5052381;28;20033;-66
2021/05/20 07:51:03;;;;;;;1.58;1.48;;;17.90;64.70;;;;;;5052495;28;20024;-67
2021/05/20 07:53:29;;;;;;;4.28;1.17;;;17.90;64.70;;;;;;5052346;28;20100;-67
2021/05/20 07:55:55;;;;;;;2.38;1.10;;;17.90;64.60;;;;;;5056419;28;20025;-67
2021/05/20 07:58:20;;;;;;;2.53;1.30;;;18.00;64.70;;;;;;5056303;28;20495;-67
2021/05/20 08:00:46;;;;;;;1.00;0.90;;;17.90;64.50;;;;;;5056194;28;20025;-66
2021/05/20 08:06:10;;;;;;;2.85;1.30;;;18.00;64.40;;;;;;5056462;28;20029;-67
2021/05/20 08:13:29;;;;;;;2.63;0.98;;;18.10;64.40;;;;;;5055991;28;20438;-67
2021/05/20 08:15:56;;;;;;;2.78;1.15;;;18.10;64.40;;;;;;5055905;28;20074;-67
2021/05/20 08:18:21;;;;;;;1.17;1.00;;;18.10;64.40;;;;;;5055922;28;20053;-66
2021/05/20 08:20:47;;;;;;;1.70;1.02;;;18.00;64.30;;;;;;5055824;28;20075;-67
2021/05/20 08:23:13;;;;;;;1.08;0.98;;;18.20;64.30;;;;;;5055830;28;20387;-67
2021/05/20 08:25:39;;;;;;;1.05;0.98;;;18.00;64.20;;;;;;5056020;28;20013;-67
2021/05/20 08:28:05;;;;;;;1.40;1.13;;;18.10;64.20;;;;;;5055983;28;20021;-67
2021/05/20 08:30:31;;;;;;;0.90;0.90;;;18.30;64.20;;;;;;5055864;28;20029;-66
2021/05/20 08:32:56;;;;;;;0.98;0.90;;;18.30;64.10;;;;;;5054308;28;20036;-67
2021/05/20 08:35:23;;;;;;;1.00;0.90;;;18.30;64.00;;;;;;5055628;28;20028;-67
2021/05/20 08:37:48;;;;;;;2.58;1.35;;;18.40;64.10;;;;;;5055311;28;20032;-67
2021/05/20 08:40:14;;;;;;;1.00;1.00;;;18.30;64.00;;;;;;5054092;28;20025;-67
2021/05/20 08:42:41;;;;;;;1.50;1.15;;;18.50;64.00;;;;;;5054407;28;20083;-66
2021/05/20 08:45:25;;;;;;;0.73;0.70;;;18.50;64.00;;;;;;5053843;28;20052;-67
2021/05/20 08:47:53;;;;;;;2.13;1.13;;;18.60;64.00;;;;;;5055598;28;20108;-67
2021/05/20 08:50:22;;;;;;;0.80;0.80;;;18.60;63.80;;;;;;5055438;28;20029;-67
2021/05/20 08:52:48;;;;;;;1.45;1.00;;;18.60;63.80;;;;;;5053890;28;20576;-67
2021/05/20 08:55:19;;;;;;;1.30;1.08;;;18.70;63.80;;;;;;5055204;28;20113;-67
2021/05/20 08:57:45;;;;;;;1.70;1.20;;;18.70;63.70;;;;;;5055265;28;20021;-67
2021/05/20 09:00:18;;;;;;;1.85;0.93;;;18.50;63.50;;;;;;5053913;28;20029;-67
2021/05/20 09:02:44;;;;;;;1.23;0.90;;;18.80;63.50;;;;;;5053855;28;20217;-67
2021/05/20 09:05:11;;;;;;;1.92;0.95;;;18.80;63.50;;;;;;5054677;28;20123;-67
2021/05/20 09:07:39;;;;;;;1.92;1.38;;;18.90;63.50;;;;;;5054657;28;20028;-67
2021/05/20 09:10:22;;;;;;;1.00;0.90;;;18.90;63.40;;;;;;5054951;28;20028;-67
2021/05/20 09:12:52;;;;;;;1.27;0.90;;;19.00;63.30;;;;;;5055188;28;20083;-67
2021/05/20 09:15:22;;;;;;;2.70;1.17;;;19.00;63.20;;;;;;5053660;28;20391;-67
2021/05/20 09:17:48;;;;;;;;;;;19.00;63.10;;;;;;5055632;28;20025;-67
2021/05/20 09:20:14;;;;;;;1.00;0.90;;;19.10;63.10;;;;;;5054779;28;19905;-67
2021/05/20 09:22:40;;;;;;;1.40;1.10;;;19.10;63.00;;;;;;5055067;28;20033;-67
2021/05/20 09:25:08;;;;;;;1.15;0.80;;;19.00;62.90;;;;;;5054956;28;20025;-67
2021/05/20 09:27:37;;;;;;;0.95;0.82;;;19.20;62.80;;;;;;5053425;28;20028;-67
2021/05/20 09:30:18;;;;;;;1.40;1.10;;;19.10;62.80;;;;;;5053361;28;20025;-67
2021/05/20 09:33:04;;;;;;;1.05;1.00;;;19.30;62.80;;;;;;5054758;28;20037;-68
2021/05/20 09:35:32;;;;;;;1.25;0.90;;;19.10;62.50;;;;;;5054733;28;20021;-67
2021/05/20 09:38:05;;;;;;;1.60;1.05;;;19.10;62.50;;;;;;5054731;28;20020;-68
2021/05/20 09:40:42;;;;;;;1.58;1.02;;;19.40;62.50;;;;;;5054991;28;20060;-67
2021/05/20 09:43:32;;;;;;;1.00;0.90;;;19.40;62.40;;;;;;5054352;28;20434;-67
2021/05/20 09:46:03;;;;;;;1.42;1.00;;;19.50;62.20;;;;;;5054359;28;20025;-67
2021/05/20 09:48:34;;;;;;;2.15;1.00;;;19.40;62.10;;;;;;5054278;28;20025;-67
2021/05/20 09:51:00;;;;;;;1.30;0.93;;;19.30;61.80;;;;;;5054332;28;20037;-67
2021/05/20 09:53:28;;;;;;;1.98;1.23;;;19.40;61.80;;;;;;5054169;28;20444;-67
2021/05/20 09:56:01;;;;;;;1.13;1.00;;;19.80;62.10;;;;;;5054030;28;20025;-67
2021/05/20 09:58:30;;;;;;;1.27;1.17;;;19.50;62.00;;;;;;5054560;28;20024;-67
2021/05/20 10:00:57;;;;;;;1.45;0.80;;;19.60;61.70;;;;;;5054194;28;20029;-67
2021/05/20 10:03:24;;;;;;;1.75;0.90;;;19.40;61.70;;;;;;5053787;28;20039;-65
2021/05/20 10:05:59;;;;;;;1.08;0.98;;;19.30;61.40;;;;;;5053775;28;20472;-67
2021/05/20 10:08:26;;;;;;;1.05;0.65;;;19.50;61.40;;;;;;5054179;28;20048;-67
2021/05/20 10:10:57;;;;;;;1.92;0.77;;;19.30;61.30;;;;;;5053906;28;20021;-67
2021/05/20 10:13:27;;;;;;;1.27;0.85;;;19.60;61.40;;;;;;5053957;28;20025;-67
2021/05/20 10:15:54;;;;;;;;;;;19.40;61.30;;;;;;5054117;28;20456;-66
2021/05/20 10:18:38;;;;;;;2.88;0.80;;;20.00;61.60;;;;;;5052647;28;19904;-67
2021/05/20 10:21:04;;;;;;;1.10;1.00;;;19.70;61.30;;;;;;5053492;28;20017;-67
2021/05/20 10:23:29;;;;;;;2.13;1.10;;;19.70;61.30;;;;;;5053430;28;20573;-67
2021/05/20 10:25:57;;;;;;;1.00;0.85;;;19.60;61.10;;;;;;5053449;28;20037;-67
2021/05/20 10:28:25;;;;;;;0.88;0.80;;;19.80;61.20;;;;;;5053657;28;20035;-67
2021/05/20 10:30:53;;;;;;;0.98;0.90;;;19.80;60.40;;;;;;5053276;28;20023;-67
2021/05/20 10:33:24;;;;;;;0.68;0.68;;;19.90;61.10;;;;;;5053297;28;20025;-66
2021/05/20 10:35:52;;;;;;;0.70;0.70;;;19.90;84.80;;;;;;5053282;28;20029;-66
2021/05/20 10:38:36;;;;;;;2.00;0.70;;;19.80;60.80;;;;;;5051924;28;20025;-67
2021/05/20 10:41:17;;;;;;;1.30;0.88;;;19.60;60.40;;;;;;5053464;28;20103;-67
2021/05/20 10:43:49;;;;;;;1.75;0.90;;;19.90;60.60;;;;;;5053428;28;20028;-66
2021/05/20 10:46:16;;;;;;;0.77;0.77;;;19.80;60.60;;;;;;5053204;28;20051;-67
2021/05/20 10:48:49;;;;;;;0.80;0.80;;;19.80;60.50;;;;;;5053091;28;20499;-66
2021/05/20 10:51:18;;;;;;;1.65;0.80;;;19.70;61.20;;;;;;5053156;28;20075;-66
2021/05/20 10:53:48;;;;;;;0.88;0.80;;;19.50;60.40;;;;;;5053010;28;20021;-66
2021/05/20 10:56:14;;;;;;;0.68;0.63;;;19.70;60.50;;;;;;5053149;28;20090;-66
2021/05/20 10:58:40;;;;;;;0.70;0.70;;;19.80;60.50;;;;;;5052867;28;20471;-66
2021/05/20 11:01:29;;;;;;;1.50;0.77;;;19.50;60.30;;;;;;5052893;28;20021;-67
2021/05/20 11:04:05;;;;;;;1.20;0.73;;;19.70;60.80;;;;;;5052651;28;20512;-67
2021/05/20 11:06:49;;;;;;;0.60;0.60;;;19.90;60.50;;;;;;5053223;28;20032;-67
2021/05/20 11:09:14;;;;;;;1.20;0.90;;;19.80;60.40;;;;;;5053045;28;20024;-67
2021/05/20 11:11:40;;;;;;;0.57;0.57;;;19.70;60.30;;;;;;5052713;28;20549;-66
2021/05/20 11:14:25;;;;;;;1.83;0.80;;;19.70;60.40;;;;;;5052866;28;20021;-67
2021/05/20 11:16:52;;;;;;;0.68;0.60;;;19.80;60.50;;;;;;5052638;28;20444;-67
2021/05/20 11:19:24;;;;;;;1.10;1.00;;;19.80;60.40;;;;;;5052736;28;20487;-66
2021/05/20 11:22:05;;;;;;;2.10;0.73;;;19.90;60.50;;;;;;5052883;28;20025;-66
2021/05/20 11:24:39;;;;;;;2.00;0.90;;;19.70;60.40;;;;;;5051627;28;20494;-66
2021/05/20 11:27:14;;;;;;;1.17;0.60;;;19.70;60.40;;;;;;5053108;28;20017;-67
2021/05/20 11:29:41;;;;;;;0.63;0.63;;;19.50;60.30;;;;;;5052529;28;20025;-67
2021/05/20 11:37:22;;;;;;;1.15;0.52;;;19.60;60.40;;;;;;5052704;28;20025;-66
2021/05/20 11:39:48;;;;;;;0.80;0.55;;;19.70;60.40;;;;;;5052478;28;20029;-66
2021/05/20 11:42:33;;;;;;;0.60;0.55;;;19.50;60.40;;;;;;5051156;28;20025;-66
2021/05/20 11:45:00;;;;;;;1.02;0.90;;;19.70;60.60;;;;;;5052655;28;20135;-66
2021/05/20 11:47:27;;;;;;;0.93;0.63;;;19.60;60.40;;;;;;5052401;28;20032;-66
2021/05/20 11:49:53;;;;;;;0.80;0.80;;;19.50;60.30;;;;;;5052277;28;20369;-66
2021/05/20 11:52:20;;;;;;;0.70;0.60;;;19.30;60.20;;;;;;5052527;28;20040;-65
2021/05/20 11:54:49;;;;;;;0.73;0.70;;;19.40;60.40;;;;;;5052546;28;20029;-66
2021/05/20 11:57:18;;;;;;;0.73;0.73;;;19.50;60.40;;;;;;5052199;28;20029;-66
2021/05/20 11:59:46;;;;;;;1.00;0.70;;;19.60;60.60;;;;;;5051006;28;20017;-66
2021/05/20 12:02:39;;;;;;;1.35;0.80;;;19.60;60.60;;;;;;5052231;28;20032;-66
2021/05/20 12:05:11;;;;;;;0.70;0.70;;;19.60;60.50;;;;;;5050789;28;20147;-67
2021/05/20 12:07:41;;;;;;;1.38;0.70;;;19.60;60.30;;;;;;5052029;28;20069;-66
2021/05/20 12:10:19;;;;;;;0.50;0.50;;;20.00;60.50;;;;;;5051043;28;20029;-66
2021/05/20 12:12:52;;;;;;;0.60;0.60;;;19.50;60.20;;;;;;5052253;28;20040;-67
2021/05/20 12:15:20;;;;;;;1.25;0.70;;;19.50;60.30;;;;;;5052124;28;20017;-66
2021/05/20 12:17:46;;;;;;;0.55;0.52;;;19.50;60.30;;;;;;5052388;28;20029;-67
2021/05/20 12:20:14;;;;;;;1.08;0.70;;;19.50;60.60;;;;;;5052298;28;20021;-67
2021/05/20 12:22:39;;;;;;;1.63;0.90;;;19.40;60.40;;;;;;5052301;28;20029;-66
2021/05/20 12:25:09;;;;;;;0.73;0.60;;;19.50;60.40;;;;;;5052031;28;20025;-66
2021/05/20 12:27:41;;;;;;;0.53;0.50;;;19.50;60.40;;;;;;5052239;28;20025;-66
2021/05/20 12:30:11;;;;;;;0.70;0.70;;;19.20;60.30;;;;;;5050919;28;20040;-65
2021/05/20 12:32:44;;;;;;;0.90;0.70;;;19.50;60.30;;;;;;5050552;28;20040;-66
2021/05/20 12:35:17;;;;;;;1.35;0.50;;;19.20;60.10;;;;;;5052135;28;20056;-65
2021/05/20 12:38:01;;;;;;;0.95;0.65;;;19.40;60.00;;;;;;5051870;28;20480;-65
2021/05/20 12:40:42;;;;;;;0.40;0.40;;;19.50;60.00;;;;;;5051988;28;20036;-66
2021/05/20 12:43:10;;;;;;;;;;;19.50;60.10;;;;;;5056093;28;20204;-66
2021/05/20 12:45:45;;;;;;;0.70;0.70;;;19.50;60.00;;;;;;5055567;28;19909;-65
2021/05/20 12:48:33;;;;;;;1.23;0.65;;;20.10;60.40;;;;;;5055483;28;20024;-65
2021/05/20 12:51:05;;;;;;;1.95;0.70;;;19.50;60.00;;;;;;5055631;28;20101;-65
2021/05/20 12:53:42;;;;;;;1.58;0.65;;;19.20;59.90;;;;;;5055356;28;20025;-67
2021/05/20 12:56:25;;;;;;;1.20;0.70;;;19.50;60.10;;;;;;5055342;28;20032;-66
2021/05/20 12:59:09;;;;;;;0.65;0.57;;;19.50;59.90;;;;;;5053984;28;20167;-65
2021/05/20 13:01:38;;;;;;;0.93;0.50;;;19.50;60.00;;;;;;5055181;28;20079;-66
2021/05/20 13:04:22;;;;;;;0.75;0.65;;;19.50;60.00;;;;;;5055033;28;20049;-66
2021/05/20 13:07:11;;;;;;;0.60;0.50;;;19.50;59.90;;;;;;5055046;28;20024;-66
2021/05/20 13:09:40;;;;;;;1.50;0.63;;;19.40;59.90;;;;;;5055327;28;20460;-67